sensor_id;sensor_type;location;lat;lon;timestamp;pressure;altitude;pressure_sealevel;temperature;humidity
74045;BME280;62389;51.412;5.436;2023-05-07T00:01:18;101490.13;;;14.20;90.44
74045;BME280;62389;51.412;5.436;2023-05-07T00:03:44;101484.88;;;14.20;90.67
74045;BME280;62389;51.412;5.436;2023-05-07T00:06:09;101479.59;;;14.20;91.19
74045;BME280;62389;51.412;5.436;2023-05-07T00:08:38;101481.34;;;14.21;90.56
74045;BME280;62389;51.412;5.436;2023-05-07T00:11:03;101480.31;;;14.23;90.97
74045;BME280;62389;51.412;5.436;2023-05-07T00:13:28;101477.59;;;14.25;90.93
74045;BME280;62389;51.412;5.436;2023-05-07T00:16:00;101483.81;;;14.24;90.79
74045;BME280;62389;51.412;5.436;2023-05-07T00:18:26;101475.91;;;14.24;91.08
74045;BME280;62389;51.412;5.436;2023-05-07T00:20:51;101468.94;;;14.23;91.28
74045;BME280;62389;51.412;5.436;2023-05-07T00:23:16;101466.41;;;14.21;91.12
74045;BME280;62389;51.412;5.436;2023-05-07T00:25:42;101465.59;;;14.19;91.46
74045;BME280;62389;51.412;5.436;2023-05-07T00:28:07;101465.69;;;14.18;91.44
74045;BME280;62389;51.412;5.436;2023-05-07T00:30:32;101466.63;;;14.17;91.42
74045;BME280;62389;51.412;5.436;2023-05-07T00:32:58;101463.16;;;14.16;91.50
74045;BME280;62389;51.412;5.436;2023-05-07T00:35:23;101467.56;;;14.16;91.51
74045;BME280;62389;51.412;5.436;2023-05-07T00:37:48;101461.50;;;14.14;91.93
74045;BME280;62389;51.412;5.436;2023-05-07T00:40:14;101462.34;;;14.14;91.63
74045;BME280;62389;51.412;5.436;2023-05-07T00:42:40;101461.50;;;14.14;91.90
74045;BME280;62389;51.412;5.436;2023-05-07T00:45:05;101460.56;;;14.15;91.70
74045;BME280;62389;51.412;5.436;2023-05-07T00:47:32;101450.97;;;14.14;91.58
74045;BME280;62389;51.412;5.436;2023-05-07T00:49:58;101455.47;;;14.12;92.01
74045;BME280;62389;51.412;5.436;2023-05-07T00:52:25;101457.31;;;14.10;92.08
74045;BME280;62389;51.412;5.436;2023-05-07T00:54:51;101460.88;;;14.09;92.11
74045;BME280;62389;51.412;5.436;2023-05-07T00:57:17;101456.63;;;14.06;92.18
74045;BME280;62389;51.412;5.436;2023-05-07T00:59:43;101454.84;;;14.07;92.17
74045;BME280;62389;51.412;5.436;2023-05-07T01:02:08;101456.63;;;14.06;92.07
74045;BME280;62389;51.412;5.436;2023-05-07T01:04:33;101456.63;;;14.06;91.71
74045;BME280;62389;51.412;5.436;2023-05-07T01:07:01;101458.41;;;14.06;92.34
74045;BME280;62389;51.412;5.436;2023-05-07T01:09:27;101452.22;;;14.07;92.19
74045;BME280;62389;51.412;5.436;2023-05-07T01:11:54;101457.47;;;14.07;92.41
74045;BME280;62389;51.412;5.436;2023-05-07T01:14:20;101450.53;;;14.06;92.32
74045;BME280;62389;51.412;5.436;2023-05-07T01:16:47;101449.63;;;14.05;92.13
74045;BME280;62389;51.412;5.436;2023-05-07T01:19:13;101445.31;;;14.04;92.60
74045;BME280;62389;51.412;5.436;2023-05-07T01:21:45;101433.00;;;14.05;92.71
74045;BME280;62389;51.412;5.436;2023-05-07T01:24:11;101432.16;;;14.04;92.05
74045;BME280;62389;51.412;5.436;2023-05-07T01:26:38;101430.47;;;14.03;92.41
74045;BME280;62389;51.412;5.436;2023-05-07T01:29:05;101428.75;;;14.02;92.01
74045;BME280;62389;51.412;5.436;2023-05-07T01:31:31;101421.84;;;13.99;92.41
74045;BME280;62389;51.412;5.436;2023-05-07T01:33:59;101431.63;;;13.97;92.31
74045;BME280;62389;51.412;5.436;2023-05-07T01:36:27;101429.22;;;13.93;93.46
74045;BME280;62389;51.412;5.436;2023-05-07T01:38:54;101433.91;;;13.86;93.67
74045;BME280;62389;51.412;5.436;2023-05-07T01:41:19;101430.56;;;13.83;93.70
74045;BME280;62389;51.412;5.436;2023-05-07T01:43:47;101418.41;;;13.80;93.90
74045;BME280;62389;51.412;5.436;2023-05-07T01:46:12;101423.66;;;13.80;93.52
74045;BME280;62389;51.412;5.436;2023-05-07T01:48:38;101425.41;;;13.81;93.70
74045;BME280;62389;51.412;5.436;2023-05-07T01:51:04;101428.88;;;13.82;93.39
74045;BME280;62389;51.412;5.436;2023-05-07T01:53:38;101420.13;;;13.81;93.35
74045;BME280;62389;51.412;5.436;2023-05-07T01:56:04;101412.16;;;13.83;93.37
74045;BME280;62389;51.412;5.436;2023-05-07T01:58:30;101414.03;;;13.81;93.21
74045;BME280;62389;51.412;5.436;2023-05-07T02:00:55;101414.03;;;13.81;93.16
74045;BME280;62389;51.412;5.436;2023-05-07T02:03:20;101407.88;;;13.80;93.20
74045;BME280;62389;51.412;5.436;2023-05-07T02:05:46;101413.16;;;13.80;93.13
74045;BME280;62389;51.412;5.436;2023-05-07T02:08:11;101412.38;;;13.78;93.07
74045;BME280;62389;51.412;5.436;2023-05-07T02:10:36;101407.97;;;13.79;93.28
74045;BME280;62389;51.412;5.436;2023-05-07T02:13:02;101423.84;;;13.77;93.29
74045;BME280;62389;51.412;5.436;2023-05-07T02:15:27;101422.13;;;13.76;93.23
74045;BME280;62389;51.412;5.436;2023-05-07T02:18:04;101422.13;;;13.76;93.26
74045;BME280;62389;51.412;5.436;2023-05-07T02:20:30;101422.13;;;13.76;93.39
74045;BME280;62389;51.412;5.436;2023-05-07T02:22:55;101427.41;;;13.76;93.55
74045;BME280;62389;51.412;5.436;2023-05-07T02:25:21;101427.41;;;13.76;94.20
74045;BME280;62389;51.412;5.436;2023-05-07T02:27:46;101432.66;;;13.76;93.97
74045;BME280;62389;51.412;5.436;2023-05-07T02:30:12;101432.66;;;13.76;94.12
74045;BME280;62389;51.412;5.436;2023-05-07T02:32:37;101434.34;;;13.77;94.27
74045;BME280;62389;51.412;5.436;2023-05-07T02:35:02;101431.63;;;13.79;93.84
74045;BME280;62389;51.412;5.436;2023-05-07T02:37:28;101424.69;;;13.78;93.78
74045;BME280;62389;51.412;5.436;2023-05-07T02:39:53;101428.25;;;13.77;94.06
74045;BME280;62389;51.412;5.436;2023-05-07T02:42:19;101428.25;;;13.77;93.84
74045;BME280;62389;51.412;5.436;2023-05-07T02:44:44;101430.91;;;13.75;94.68
74045;BME280;62389;51.412;5.436;2023-05-07T02:47:09;101427.59;;;13.71;94.13
74045;BME280;62389;51.412;5.436;2023-05-07T02:49:35;101433.72;;;13.72;94.45
74045;BME280;62389;51.412;5.436;2023-05-07T02:52:00;101433.78;;;13.70;94.35
74045;BME280;62389;51.412;5.436;2023-05-07T02:54:26;101432.91;;;13.70;94.38
74045;BME280;62389;51.412;5.436;2023-05-07T02:56:51;101432.91;;;13.70;94.75
74045;BME280;62389;51.412;5.436;2023-05-07T02:59:16;101426.88;;;13.68;95.58
74045;BME280;62389;51.412;5.436;2023-05-07T03:01:42;101431.22;;;13.69;95.15
74045;BME280;62389;51.412;5.436;2023-05-07T03:04:09;101424.25;;;13.68;94.51
74045;BME280;62389;51.412;5.436;2023-05-07T03:06:35;101433.84;;;13.69;94.80
74045;BME280;62389;51.412;5.436;2023-05-07T03:09:01;101424.25;;;13.68;94.78
74045;BME280;62389;51.412;5.436;2023-05-07T03:11:26;101426.03;;;13.67;94.79
74045;BME280;62389;51.412;5.436;2023-05-07T03:13:52;101425.19;;;13.67;94.45
74045;BME280;62389;51.412;5.436;2023-05-07T03:16:17;101416.47;;;13.66;94.53
74045;BME280;62389;51.412;5.436;2023-05-07T03:18:42;101416.50;;;13.65;94.46
74045;BME280;62389;51.412;5.436;2023-05-07T03:21:08;101416.50;;;13.65;94.38
74045;BME280;62389;51.412;5.436;2023-05-07T03:23:33;101416.59;;;13.63;95.08
74045;BME280;62389;51.412;5.436;2023-05-07T03:25:59;101412.19;;;13.64;94.65
74045;BME280;62389;51.412;5.436;2023-05-07T03:28:24;101406.06;;;13.63;94.72
74045;BME280;62389;51.412;5.436;2023-05-07T03:30:49;101399.97;;;13.63;94.70
74045;BME280;62389;51.412;5.436;2023-05-07T03:33:15;101404.28;;;13.64;95.14
74045;BME280;62389;51.412;5.436;2023-05-07T03:35:41;101404.28;;;13.64;94.90
74045;BME280;62389;51.412;5.436;2023-05-07T03:38:06;101400.81;;;13.63;95.08
74045;BME280;62389;51.412;5.436;2023-05-07T03:40:32;101409.56;;;13.64;94.86
74045;BME280;62389;51.412;5.436;2023-05-07T03:42:57;101407.84;;;13.63;94.99
74045;BME280;62389;51.412;5.436;2023-05-07T03:45:22;101401.75;;;13.62;94.85
74045;BME280;62389;51.412;5.436;2023-05-07T03:47:48;101398.31;;;13.60;94.77
74045;BME280;62389;51.412;5.436;2023-05-07T03:50:13;101401.84;;;13.61;95.07
74045;BME280;62389;51.412;5.436;2023-05-07T03:52:39;101403.66;;;13.59;95.53
74045;BME280;62389;51.412;5.436;2023-05-07T03:55:04;101412.41;;;13.59;95.21
74045;BME280;62389;51.412;5.436;2023-05-07T03:57:31;101411.53;;;13.59;95.20
74045;BME280;62389;51.412;5.436;2023-05-07T03:59:56;101406.38;;;13.57;95.69
74045;BME280;62389;51.412;5.436;2023-05-07T04:02:21;101412.47;;;13.58;95.24
74045;BME280;62389;51.412;5.436;2023-05-07T04:04:48;101422.16;;;13.57;95.97
74045;BME280;62389;51.412;5.436;2023-05-07T04:07:14;101420.38;;;13.58;95.95
74045;BME280;62389;51.412;5.436;2023-05-07T04:09:40;101419.44;;;13.59;96.10
74045;BME280;62389;51.412;5.436;2023-05-07T04:12:05;101426.38;;;13.60;96.38
74045;BME280;62389;51.412;5.436;2023-05-07T04:14:31;101422.78;;;13.62;95.74
74045;BME280;62389;51.412;5.436;2023-05-07T04:17:00;101430.59;;;13.64;96.04
74045;BME280;62389;51.412;5.436;2023-05-07T04:19:25;101437.53;;;13.65;96.02
74045;BME280;62389;51.412;5.436;2023-05-07T04:21:51;101434.91;;;13.65;95.85
74045;BME280;62389;51.412;5.436;2023-05-07T04:24:16;101442.78;;;13.65;96.02
74045;BME280;62389;51.412;5.436;2023-05-07T04:26:41;101432.22;;;13.66;95.86
74045;BME280;62389;51.412;5.436;2023-05-07T04:29:07;101444.38;;;13.69;95.90
74045;BME280;62389;51.412;5.436;2023-05-07T04:31:32;101440.88;;;13.68;95.61
74045;BME280;62389;51.412;5.436;2023-05-07T04:33:58;101441.72;;;13.69;95.73
74045;BME280;62389;51.412;5.436;2023-05-07T04:36:23;101427.59;;;13.71;95.83
74045;BME280;62389;51.412;5.436;2023-05-07T04:38:52;101430.16;;;13.73;96.32
74045;BME280;62389;51.412;5.436;2023-05-07T04:41:18;101429.22;;;13.74;96.26
74045;BME280;62389;51.412;5.436;2023-05-07T04:43:43;101420.41;;;13.75;96.23
74045;BME280;62389;51.412;5.436;2023-05-07T04:46:08;101431.72;;;13.77;96.63
74045;BME280;62389;51.412;5.436;2023-05-07T04:48:34;101437.75;;;13.79;96.50
74045;BME280;62389;51.412;5.436;2023-05-07T04:50:59;101439.44;;;13.80;96.69
74045;BME280;62389;51.412;5.436;2023-05-07T04:53:25;101436.81;;;13.80;96.56
74045;BME280;62389;51.412;5.436;2023-05-07T04:55:55;101448.13;;;13.82;96.28
74045;BME280;62389;51.412;5.436;2023-05-07T04:58:22;101443.72;;;13.83;96.64
74045;BME280;62389;51.412;5.436;2023-05-07T05:00:47;101445.41;;;13.84;96.44
74045;BME280;62389;51.412;5.436;2023-05-07T05:03:12;101443.63;;;13.84;96.50
74045;BME280;62389;51.412;5.436;2023-05-07T05:05:38;101439.31;;;13.83;96.28
74045;BME280;62389;51.412;5.436;2023-05-07T05:08:03;101446.25;;;13.84;96.47
74045;BME280;62389;51.412;5.436;2023-05-07T05:10:29;101447.97;;;13.85;96.36
74045;BME280;62389;51.412;5.436;2023-05-07T05:12:54;101449.69;;;13.86;96.80
74045;BME280;62389;51.412;5.436;2023-05-07T05:15:19;101456.66;;;13.87;96.65
74045;BME280;62389;51.412;5.436;2023-05-07T05:17:45;101460.03;;;13.89;96.48
74045;BME280;62389;51.412;5.436;2023-05-07T05:20:10;101459.91;;;13.92;96.31
74045;BME280;62389;51.412;5.436;2023-05-07T05:22:36;101456.28;;;13.95;96.55
74045;BME280;62389;51.412;5.436;2023-05-07T05:25:02;101456.97;;;13.98;96.57
74045;BME280;62389;51.412;5.436;2023-05-07T05:27:28;101460.31;;;14.02;96.36
74045;BME280;62389;51.412;5.436;2023-05-07T05:29:54;101460.16;;;14.05;96.41
74045;BME280;62389;51.412;5.436;2023-05-07T05:32:19;101460.09;;;14.07;96.44
74045;BME280;62389;51.412;5.436;2023-05-07T05:34:44;101459.19;;;14.08;96.52
74045;BME280;62389;51.412;5.436;2023-05-07T05:37:10;101462.56;;;14.10;96.65
74045;BME280;62389;51.412;5.436;2023-05-07T05:39:36;101470.41;;;14.11;96.14
74045;BME280;62389;51.412;5.436;2023-05-07T05:42:01;101470.25;;;14.14;95.96
74045;BME280;62389;51.412;5.436;2023-05-07T05:44:27;101469.25;;;14.17;96.23
74045;BME280;62389;51.412;5.436;2023-05-07T05:46:52;101469.94;;;14.20;96.10
74045;BME280;62389;51.412;5.436;2023-05-07T05:49:20;101473.28;;;14.24;96.21
74045;BME280;62389;51.412;5.436;2023-05-07T05:51:46;101476.63;;;14.28;96.06
74045;BME280;62389;51.412;5.436;2023-05-07T05:54:11;101472.91;;;14.32;95.72
74045;BME280;62389;51.412;5.436;2023-05-07T05:56:37;101471.75;;;14.37;95.78
74045;BME280;62389;51.412;5.436;2023-05-07T05:59:02;101478.41;;;14.44;95.74
74045;BME280;62389;51.412;5.436;2023-05-07T06:01:27;101474.50;;;14.53;95.96
74045;BME280;62389;51.412;5.436;2023-05-07T06:03:53;101474.09;;;14.61;95.54
74045;BME280;62389;51.412;5.436;2023-05-07T06:06:18;101467.63;;;14.68;95.29
74045;BME280;62389;51.412;5.436;2023-05-07T06:08:44;101474.34;;;14.73;94.83
74045;BME280;62389;51.412;5.436;2023-05-07T06:11:09;101472.25;;;14.80;94.47
74045;BME280;62389;51.412;5.436;2023-05-07T06:13:35;101472.88;;;14.85;93.60
74045;BME280;62389;51.412;5.436;2023-05-07T06:16:00;101479.69;;;14.89;93.73
74045;BME280;62389;51.412;5.436;2023-05-07T06:18:26;101469.00;;;14.92;93.58
74045;BME280;62389;51.412;5.436;2023-05-07T06:20:52;101472.25;;;14.97;94.16
74045;BME280;62389;51.412;5.436;2023-05-07T06:23:17;101472.88;;;15.02;93.55
74045;BME280;62389;51.412;5.436;2023-05-07T06:25:48;101479.59;;;15.08;93.80
74045;BME280;62389;51.412;5.436;2023-05-07T06:28:13;101475.88;;;15.12;93.23
74045;BME280;62389;51.412;5.436;2023-05-07T06:30:38;101476.53;;;15.16;93.16
74045;BME280;62389;51.412;5.436;2023-05-07T06:33:05;101476.25;;;15.22;92.76
74045;BME280;62389;51.412;5.436;2023-05-07T06:35:30;101476.00;;;15.26;92.73
74045;BME280;62389;51.412;5.436;2023-05-07T06:37:56;101483.63;;;15.31;92.60
74045;BME280;62389;51.412;5.436;2023-05-07T06:40:21;101478.91;;;15.38;91.94
74045;BME280;62389;51.412;5.436;2023-05-07T06:42:46;101479.50;;;15.43;92.28
74045;BME280;62389;51.412;5.436;2023-05-07T06:45:12;101477.47;;;15.48;92.10
74045;BME280;62389;51.412;5.436;2023-05-07T06:47:37;101490.41;;;15.52;91.85
74045;BME280;62389;51.412;5.436;2023-05-07T06:50:03;101497.38;;;15.53;91.90
74045;BME280;62389;51.412;5.436;2023-05-07T06:52:28;101494.84;;;15.52;91.74
74045;BME280;62389;51.412;5.436;2023-05-07T06:54:53;101495.69;;;15.52;91.60
74045;BME280;62389;51.412;5.436;2023-05-07T06:57:19;101500.03;;;15.53;91.85
74045;BME280;62389;51.412;5.436;2023-05-07T06:59:44;101501.91;;;15.51;91.52
74045;BME280;62389;51.412;5.436;2023-05-07T07:02:09;101503.00;;;15.47;91.71
74045;BME280;62389;51.412;5.436;2023-05-07T07:04:35;101501.44;;;15.43;92.18
74045;BME280;62389;51.412;5.436;2023-05-07T07:07:00;101504.31;;;15.39;91.89
74045;BME280;62389;51.412;5.436;2023-05-07T07:09:25;101507.06;;;15.37;91.61
74045;BME280;62389;51.412;5.436;2023-05-07T07:11:51;101506.25;;;15.35;91.57
74045;BME280;62389;51.412;5.436;2023-05-07T07:14:16;101501.78;;;15.37;92.11
74045;BME280;62389;51.412;5.436;2023-05-07T07:16:41;101498.06;;;15.41;92.47
74045;BME280;62389;51.412;5.436;2023-05-07T07:19:07;101502.06;;;15.48;92.38
74045;BME280;62389;51.412;5.436;2023-05-07T07:21:33;101504.34;;;15.54;92.66
74045;BME280;62389;51.412;5.436;2023-05-07T07:23:58;101503.09;;;15.62;92.15
74045;BME280;62389;51.412;5.436;2023-05-07T07:26:23;101499.31;;;15.67;91.95
74045;BME280;62389;51.412;5.436;2023-05-07T07:28:49;101506.78;;;15.75;92.06
74045;BME280;62389;51.412;5.436;2023-05-07T07:31:14;101505.78;;;15.77;91.73
74045;BME280;62389;51.412;5.436;2023-05-07T07:33:40;101501.97;;;15.83;91.89
74045;BME280;62389;51.412;5.436;2023-05-07T07:36:06;101506.63;;;15.94;91.60
74045;BME280;62389;51.412;5.436;2023-05-07T07:38:32;101511.56;;;16.00;91.06
74045;BME280;62389;51.412;5.436;2023-05-07T07:40:58;101518.13;;;16.09;91.13
74045;BME280;62389;51.412;5.436;2023-05-07T07:43:23;101513.44;;;16.14;89.60
74045;BME280;62389;51.412;5.436;2023-05-07T07:45:48;101511.38;;;16.19;89.26
74045;BME280;62389;51.412;5.436;2023-05-07T07:48:14;101515.56;;;16.23;89.57
74045;BME280;62389;51.412;5.436;2023-05-07T07:50:39;101512.56;;;16.29;90.12
74045;BME280;62389;51.412;5.436;2023-05-07T07:53:04;101518.34;;;16.36;89.63
74045;BME280;62389;51.412;5.436;2023-05-07T07:55:30;101508.31;;;16.42;89.26
74045;BME280;62389;51.412;5.436;2023-05-07T07:57:56;101513.13;;;16.50;89.34
74045;BME280;62389;51.412;5.436;2023-05-07T08:00:22;101510.91;;;16.58;89.09
74045;BME280;62389;51.412;5.436;2023-05-07T08:02:47;101513.28;;;16.63;88.42
74045;BME280;62389;51.412;5.436;2023-05-07T08:05:12;101512.16;;;16.67;88.49
74045;BME280;62389;51.412;5.436;2023-05-07T08:07:38;101502.22;;;16.72;88.79
74045;BME280;62389;51.412;5.436;2023-05-07T08:10:03;101509.56;;;16.81;87.75
74045;BME280;62389;51.412;5.436;2023-05-07T08:12:29;101502.06;;;16.89;87.64
74045;BME280;62389;51.412;5.436;2023-05-07T08:14:54;101505.84;;;16.99;86.10
74045;BME280;62389;51.412;5.436;2023-05-07T08:17:20;101503.59;;;17.07;87.27
74045;BME280;62389;51.412;5.436;2023-05-07T08:19:47;101513.16;;;17.24;86.63
74045;BME280;62389;51.412;5.436;2023-05-07T08:22:13;101512.03;;;17.43;86.56
74045;BME280;62389;51.412;5.436;2023-05-07T08:24:39;101519.38;;;17.66;84.97
74045;BME280;62389;51.412;5.436;2023-05-07T08:27:04;101521.34;;;17.91;83.29
74045;BME280;62389;51.412;5.436;2023-05-07T08:29:30;101527.69;;;18.03;83.45
74045;BME280;62389;51.412;5.436;2023-05-07T08:31:55;101520.19;;;18.09;82.39
74045;BME280;62389;51.412;5.436;2023-05-07T08:34:21;101538.31;;;18.16;80.87
74045;BME280;62389;51.412;5.436;2023-05-07T08:36:47;101532.72;;;18.20;84.02
74045;BME280;62389;51.412;5.436;2023-05-07T08:39:15;101535.47;;;18.19;81.44
74045;BME280;62389;51.412;5.436;2023-05-07T08:41:44;101535.97;;;18.11;81.54
74045;BME280;62389;51.412;5.436;2023-05-07T08:44:12;101533.25;;;17.98;82.16
74045;BME280;62389;51.412;5.436;2023-05-07T08:46:39;101536.09;;;17.95;81.95
74045;BME280;62389;51.412;5.436;2023-05-07T08:49:04;101539.50;;;17.97;82.05
74045;BME280;62389;51.412;5.436;2023-05-07T08:51:30;101540.25;;;17.99;81.78
74045;BME280;62389;51.412;5.436;2023-05-07T08:53:56;101539.09;;;18.03;82.08
74045;BME280;62389;51.412;5.436;2023-05-07T08:56:21;101532.84;;;18.04;81.70
74045;BME280;62389;51.412;5.436;2023-05-07T08:58:47;101531.13;;;18.18;84.31
74045;BME280;62389;51.412;5.436;2023-05-07T09:01:14;101533.34;;;18.38;80.78
74045;BME280;62389;51.412;5.436;2023-05-07T09:03:40;101531.72;;;18.62;82.96
74045;BME280;62389;51.412;5.436;2023-05-07T09:06:06;101537.50;;;18.82;81.97
74045;BME280;62389;51.412;5.436;2023-05-07T09:08:33;101541.34;;;18.91;80.04
74045;BME280;62389;51.412;5.436;2023-05-07T09:10:59;101534.78;;;18.96;79.59
74045;BME280;62389;51.412;5.436;2023-05-07T09:13:25;101540.06;;;18.96;78.61
74045;BME280;62389;51.412;5.436;2023-05-07T09:15:52;101536.69;;;18.94;79.57
74045;BME280;62389;51.412;5.436;2023-05-07T09:18:17;101540.84;;;18.98;79.81
74045;BME280;62389;51.412;5.436;2023-05-07T09:20:42;101533.63;;;19.00;78.88
74045;BME280;62389;51.412;5.436;2023-05-07T09:23:08;101536.06;;;19.03;79.99
74045;BME280;62389;51.412;5.436;2023-05-07T09:25:35;101540.28;;;19.06;78.87
74045;BME280;62389;51.412;5.436;2023-05-07T09:28:02;101540.94;;;19.09;79.32
74045;BME280;62389;51.412;5.436;2023-05-07T09:30:31;101542.44;;;19.13;79.52
74045;BME280;62389;51.412;5.436;2023-05-07T09:33:01;101544.56;;;19.21;79.36
74045;BME280;62389;51.412;5.436;2023-05-07T09:35:27;101542.66;;;19.23;76.62
74045;BME280;62389;51.412;5.436;2023-05-07T09:37:54;101547.09;;;19.23;78.22
74045;BME280;62389;51.412;5.436;2023-05-07T09:40:21;101541.16;;;19.19;75.43
74045;BME280;62389;51.412;5.436;2023-05-07T09:42:48;101543.69;;;19.21;76.44
74045;BME280;62389;51.412;5.436;2023-05-07T09:45:14;101543.69;;;19.21;75.93
74045;BME280;62389;51.412;5.436;2023-05-07T09:47:42;101546.47;;;19.32;78.92
74045;BME280;62389;51.412;5.436;2023-05-07T09:50:10;101542.84;;;19.58;77.21
74045;BME280;62389;51.412;5.436;2023-05-07T09:52:39;101546.44;;;19.83;74.86
74045;BME280;62389;51.412;5.436;2023-05-07T09:55:06;101540.38;;;19.94;73.55
74045;BME280;62389;51.412;5.436;2023-05-07T09:57:33;101541.69;;;20.12;74.75
74045;BME280;62389;51.412;5.436;2023-05-07T10:00:01;101538.19;;;20.35;74.15
74045;BME280;62389;51.412;5.436;2023-05-07T10:02:30;101540.41;;;20.65;72.31
74045;BME280;62389;51.412;5.436;2023-05-07T10:04:57;101532.16;;;20.92;73.53
74045;BME280;62389;51.412;5.436;2023-05-07T10:07:26;101539.44;;;21.13;70.57
74045;BME280;62389;51.412;5.436;2023-05-07T10:09:51;101538.25;;;21.28;70.79
74045;BME280;62389;51.412;5.436;2023-05-07T10:12:19;101539.19;;;21.40;69.82
74045;BME280;62389;51.412;5.436;2023-05-07T10:14:45;101536.88;;;21.46;69.54
74045;BME280;62389;51.412;5.436;2023-05-07T10:17:13;101533.84;;;21.51;69.23
74045;BME280;62389;51.412;5.436;2023-05-07T10:19:42;101531.66;;;21.56;68.09
74045;BME280;62389;51.412;5.436;2023-05-07T10:22:09;101535.03;;;21.58;67.71
74045;BME280;62389;51.412;5.436;2023-05-07T10:24:36;101532.75;;;21.65;66.28
74045;BME280;62389;51.412;5.436;2023-05-07T10:27:06;101534.44;;;21.77;66.94
74045;BME280;62389;51.412;5.436;2023-05-07T10:34:44;101543.34;;;22.21;67.17
74045;BME280;62389;51.412;5.436;2023-05-07T10:37:11;101544.19;;;22.21;63.50
74045;BME280;62389;51.412;5.436;2023-05-07T10:39:37;101531.97;;;22.08;65.90
74045;BME280;62389;51.412;5.436;2023-05-07T10:42:10;101552.09;;;22.01;67.06
74045;BME280;62389;51.412;5.436;2023-05-07T10:44:36;101546.41;;;21.94;65.54
74045;BME280;62389;51.412;5.436;2023-05-07T10:47:12;101539.88;;;21.87;67.58
74045;BME280;62389;51.412;5.436;2023-05-07T10:52:18;101550.03;;;21.48;66.08
74045;BME280;62389;51.412;5.436;2023-05-07T10:54:45;101550.41;;;21.32;69.31
74045;BME280;62389;51.412;5.436;2023-05-07T10:57:43;101548.75;;;21.18;69.38
74045;BME280;62389;51.412;5.436;2023-05-07T11:05:28;101553.44;;;20.57;67.50
74045;BME280;62389;51.412;5.436;2023-05-07T11:07:58;101547.31;;;20.44;69.01
74045;BME280;62389;51.412;5.436;2023-05-07T11:10:55;101549.00;;;20.45;70.65
74045;BME280;62389;51.412;5.436;2023-05-07T11:13:44;101547.00;;;20.49;71.42
74045;BME280;62389;51.412;5.436;2023-05-07T11:16:23;101540.81;;;20.48;72.52
74045;BME280;62389;51.412;5.436;2023-05-07T11:18:50;101545.06;;;20.51;69.50
74045;BME280;62389;51.412;5.436;2023-05-07T11:21:40;101540.78;;;20.72;70.34
74045;BME280;62389;51.412;5.436;2023-05-07T11:24:09;101540.75;;;20.96;67.07
74045;BME280;62389;51.412;5.436;2023-05-07T11:26:47;101539.34;;;21.14;68.47
74045;BME280;62389;51.412;5.436;2023-05-07T11:29:14;101541.06;;;21.27;67.73
74045;BME280;62389;51.412;5.436;2023-05-07T11:31:41;101542.53;;;21.31;67.30
74045;BME280;62389;51.412;5.436;2023-05-07T11:34:07;101540.81;;;21.30;67.01
74045;BME280;62389;51.412;5.436;2023-05-07T11:36:33;101547.97;;;21.29;67.67
74045;BME280;62389;51.412;5.436;2023-05-07T11:38:58;101543.09;;;21.12;64.18
74045;BME280;62389;51.412;5.436;2023-05-07T11:41:34;101550.19;;;21.00;67.92
74045;BME280;62389;51.412;5.436;2023-05-07T11:44:00;101539.53;;;20.89;68.80
74045;BME280;62389;51.412;5.436;2023-05-07T11:46:27;101541.06;;;20.80;66.85
74045;BME280;62389;51.412;5.436;2023-05-07T11:48:53;101545.06;;;20.75;66.99
74045;BME280;62389;51.412;5.436;2023-05-07T11:51:20;101546.97;;;20.73;68.69
74045;BME280;62389;51.412;5.436;2023-05-07T11:53:46;101541.13;;;20.67;68.82
74045;BME280;62389;51.412;5.436;2023-05-07T11:56:13;101540.03;;;20.59;68.67
74045;BME280;62389;51.412;5.436;2023-05-07T11:58:39;101545.19;;;20.49;67.62
74045;BME280;62389;51.412;5.436;2023-05-07T12:01:08;101548.81;;;20.35;69.60
74045;BME280;62389;51.412;5.436;2023-05-07T12:03:35;101546.44;;;20.20;70.41
74045;BME280;62389;51.412;5.436;2023-05-07T12:06:02;101543.09;;;20.05;68.95
74045;BME280;62389;51.412;5.436;2023-05-07T12:08:28;101536.00;;;19.92;71.50
74045;BME280;62389;51.412;5.436;2023-05-07T12:10:53;101540.41;;;19.81;71.31
74045;BME280;62389;51.412;5.436;2023-05-07T12:13:21;101548.47;;;19.66;73.85
74045;BME280;62389;51.412;5.436;2023-05-07T12:15:51;101556.00;;;19.47;72.65
74045;BME280;62389;51.412;5.436;2023-05-07T12:18:16;101575.34;;;19.24;72.55
74045;BME280;62389;51.412;5.436;2023-05-07T12:20:42;101584.41;;;18.94;72.91
74045;BME280;62389;51.412;5.436;2023-05-07T12:23:08;101604.69;;;18.68;79.84
74045;BME280;62389;51.412;5.436;2023-05-07T12:25:39;101619.53;;;18.15;83.14
74045;BME280;62389;51.412;5.436;2023-05-07T12:28:05;101645.75;;;17.32;82.04
74045;BME280;62389;51.412;5.436;2023-05-07T12:30:38;101643.56;;;16.79;86.85
74045;BME280;62389;51.412;5.436;2023-05-07T12:33:04;101629.31;;;16.50;87.57
74045;BME280;62389;51.412;5.436;2023-05-07T12:35:37;101626.44;;;16.23;87.98
74045;BME280;62389;51.412;5.436;2023-05-07T12:38:08;101619.50;;;16.04;89.07
74045;BME280;62389;51.412;5.436;2023-05-07T12:40:37;101617.69;;;15.89;89.04
74045;BME280;62389;51.412;5.436;2023-05-07T12:43:03;101615.53;;;15.80;89.79
74045;BME280;62389;51.412;5.436;2023-05-07T12:45:29;101609.03;;;15.70;90.38
74045;BME280;62389;51.412;5.436;2023-05-07T12:47:54;101620.69;;;15.66;90.92
74045;BME280;62389;51.412;5.436;2023-05-07T12:50:20;101625.03;;;15.67;91.42
74045;BME280;62389;51.412;5.436;2023-05-07T12:52:47;101620.88;;;15.61;94.63
74045;BME280;62389;51.412;5.436;2023-05-07T12:55:16;101635.03;;;15.77;95.36
74045;BME280;62389;51.412;5.436;2023-05-07T12:57:45;101644.91;;;15.90;95.96
74045;BME280;62389;51.412;5.436;2023-05-07T13:00:11;101653.03;;;16.02;94.36